Time;durP1;ratioP1;P1;durP2;ratioP2;P2;SDS_P1;SDS_P2;PMS_P1;PMS_P2;Temp;Humidity;BMP_temperature;BMP_pressure;BME280_temperature;BME280_humidity;BME280_pressure;Samples;Min_cycle;Max_cycle;Signal;HPM_P1;HPM_P2
2023/06/10 00:01:47;;;;;;;7.20;6.60;;;24.50;45.40;;;;;;5023932;28;20125;-50
2023/06/10 00:04:17;;;;;;;7.15;6.57;;;24.40;45.60;;;;;;5029324;28;20406;-49
2023/06/10 00:06:49;;;;;;;7.97;7.20;;;24.30;46.10;;;;;;5029427;28;20049;-50
2023/06/10 00:09:23;;;;;;;6.85;6.35;;;24.20;45.90;;;;;;5017790;28;20045;-50
2023/06/10 00:12:00;;;;;;;8.52;7.22;;;24.10;46.20;;;;;;5027786;28;20129;-49
2023/06/10 00:14:28;;;;;;;7.53;6.85;;;24.00;46.30;;;;;;5029685;28;20052;-51
2023/06/10 00:16:57;;;;;;;7.07;6.47;;;23.80;46.20;;;;;;5028492;28;20477;-47
2023/06/10 00:19:25;;;;;;;7.18;6.47;;;23.80;46.60;;;;;;5026069;28;20497;-50
2023/06/10 00:21:53;;;;;;;7.00;6.35;;;23.70;46.80;;;;;;5033341;28;20128;-47
2023/06/10 00:24:20;;;;;;;8.25;7.53;;;23.60;46.90;;;;;;5027298;28;20524;-48
2023/06/10 00:26:49;;;;;;;7.30;6.70;;;23.50;47.00;;;;;;5029983;28;20041;-49
2023/06/10 00:29:20;;;;;;;6.63;6.03;;;23.40;47.20;;;;;;5014950;28;20072;-50
2023/06/10 00:31:49;;;;;;;7.07;6.50;;;23.30;47.30;;;;;;5014017;28;20120;-48
2023/06/10 00:34:18;;;;;;;7.03;6.43;;;23.20;47.40;;;;;;5030448;28;20049;-51
2023/06/10 00:36:45;;;;;;;7.28;6.68;;;23.20;47.60;;;;;;5015420;28;20084;-50
2023/06/10 00:39:15;;;;;;;7.78;7.18;;;23.00;47.60;;;;;;5024492;28;20034;-49
2023/06/10 00:41:44;;;;;;;6.95;6.35;;;23.00;47.80;;;;;;5027559;28;20084;-47
2023/06/10 00:44:11;;;;;;;7.05;6.45;;;22.90;48.20;;;;;;5015040;28;20140;-50
2023/06/10 00:46:41;;;;;;;6.78;6.20;;;22.80;48.10;;;;;;5015197;28;20041;-51
2023/06/10 00:49:12;;;;;;;7.05;6.38;;;22.70;48.20;;;;;;5029999;28;20052;-47
2023/06/10 00:51:46;;;;;;;7.63;7.00;;;22.70;48.40;;;;;;5015280;28;20033;-47
2023/06/10 00:54:17;;;;;;;7.30;6.55;;;22.60;48.60;;;;;;5022154;28;20075;-50
2023/06/10 00:56:45;;;;;;;6.85;6.18;;;22.50;48.70;;;;;;5015244;28;20413;-50
2023/06/10 00:59:15;;;;;;;7.55;6.95;;;22.50;48.90;;;;;;5014370;28;20095;-50
2023/06/10 01:01:46;;;;;;;7.13;6.53;;;22.40;49.30;;;;;;5026896;28;20069;-49
2023/06/10 01:04:17;;;;;;;7.63;6.93;;;22.30;49.10;;;;;;5031516;28;20406;-50
2023/06/10 01:07:09;;;;;;;7.22;6.63;;;22.30;49.10;;;;;;5032554;28;20042;-47
2023/06/10 01:09:57;;;;;;;7.40;6.80;;;22.30;49.90;;;;;;5032130;28;20042;-50
2023/06/10 01:12:33;;;;;;;6.93;6.22;;;22.20;49.20;;;;;;5011601;28;20041;-49
2023/06/10 01:15:04;;;;;;;7.65;7.05;;;22.10;49.60;;;;;;5031805;28;20063;-47
2023/06/10 01:17:33;;;;;;;7.18;6.63;;;22.00;49.50;;;;;;5014751;28;20046;-50
2023/06/10 01:20:11;;;;;;;7.40;6.78;;;22.00;49.60;;;;;;5026554;28;20050;-47
2023/06/10 01:22:38;;;;;;;9.57;8.63;;;21.90;49.70;;;;;;5009835;28;20101;-49
2023/06/10 01:25:05;;;;;;;6.75;6.25;;;21.90;49.80;;;;;;5004190;28;20046;-47
2023/06/10 01:27:39;;;;;;;8.15;7.43;;;21.80;49.90;;;;;;5032179;28;20115;-47
2023/06/10 01:30:18;;;;;;;7.70;7.10;;;21.80;50.10;;;;;;5031064;28;20037;-49
2023/06/10 01:32:48;;;;;;;8.00;7.30;;;21.70;50.50;;;;;;5013543;28;20494;-46
2023/06/10 01:35:18;;;;;;;7.55;6.95;;;21.70;50.30;;;;;;5025812;28;20042;-50
2023/06/10 01:37:54;;;;;;;7.55;6.95;;;21.60;50.60;;;;;;5014372;28;20095;-47
2023/06/10 01:40:26;;;;;;;8.05;7.35;;;21.60;50.70;;;;;;5031628;28;20088;-48
2023/06/10 01:42:52;;;;;;;7.50;6.80;;;21.50;50.40;;;;;;5008825;28;20057;-47
2023/06/10 01:45:19;;;;;;;7.80;7.05;;;21.50;50.30;;;;;;5030702;28;20095;-46
2023/06/10 01:47:48;;;;;;;7.00;6.40;;;21.50;50.30;;;;;;5031225;28;20056;-47
2023/06/10 01:50:16;;;;;;;8.18;7.45;;;21.40;50.40;;;;;;5009610;28;20045;-51
2023/06/10 01:52:46;;;;;;;7.63;6.93;;;21.40;50.50;;;;;;5010592;28;20516;-49
2023/06/10 01:55:13;;;;;;;7.63;7.03;;;21.30;50.50;;;;;;5012056;28;20041;-47
2023/06/10 01:57:45;;;;;;;7.35;6.72;;;21.30;50.60;;;;;;5013825;28;20050;-48
2023/06/10 02:00:14;;;;;;;7.95;7.18;;;21.20;51.00;;;;;;5013276;28;20052;-47
2023/06/10 02:02:46;;;;;;;8.07;7.15;;;21.20;50.80;;;;;;5031010;28;20510;-48
2023/06/10 02:05:14;;;;;;;8.25;7.55;;;21.10;50.70;;;;;;5008947;28;20045;-49
2023/06/10 02:07:41;;;;;;;8.05;7.35;;;21.10;51.10;;;;;;5013538;28;20137;-49
2023/06/10 02:10:09;;;;;;;7.53;6.88;;;21.10;51.10;;;;;;5012818;28;20132;-47
2023/06/10 02:12:47;;;;;;;7.75;7.15;;;21.00;51.20;;;;;;5006644;28;20061;-50
2023/06/10 02:15:16;;;;;;;8.32;7.63;;;21.00;51.80;;;;;;5012564;28;20087;-50
2023/06/10 02:17:49;;;;;;;7.88;7.28;;;20.90;51.30;;;;;;5031458;28;20459;-47
2023/06/10 02:20:16;;;;;;;7.93;7.25;;;20.90;51.60;;;;;;5029812;28;20038;-48
2023/06/10 02:22:45;;;;;;;7.97;7.30;;;20.90;51.40;;;;;;5013301;28;20498;-50
2023/06/10 02:25:11;;;;;;;7.57;6.97;;;20.80;51.50;;;;;;5011938;28;20144;-47
2023/06/10 02:27:38;;;;;;;7.55;6.95;;;20.80;51.60;;;;;;5012957;28;20498;-47
2023/06/10 02:30:13;;;;;;;7.97;7.28;;;20.80;51.70;;;;;;5012905;28;20141;-50
2023/06/10 02:32:47;;;;;;;7.80;7.20;;;20.80;51.90;;;;;;5012779;28;20160;-48
2023/06/10 02:35:22;;;;;;;8.50;6.35;;;20.70;51.60;;;;;;5006369;28;20525;-49
2023/06/10 02:37:51;;;;;;;7.68;6.97;;;20.70;51.70;;;;;;5013120;28;20221;-48
2023/06/10 02:40:21;;;;;;;8.18;7.57;;;20.60;51.70;;;;;;5012251;28;20103;-50
2023/06/10 02:42:48;;;;;;;8.27;7.57;;;20.60;51.90;;;;;;5027743;28;20091;-50
2023/06/10 02:45:15;;;;;;;8.63;7.82;;;20.50;52.00;;;;;;5031398;28;20088;-49
2023/06/10 02:47:46;;;;;;;7.90;7.20;;;20.50;52.10;;;;;;5012922;28;20046;-49
2023/06/10 02:50:14;;;;;;;8.43;7.72;;;20.50;52.20;;;;;;5010375;28;20041;-50
2023/06/10 02:53:00;;;;;;;7.65;7.05;;;20.50;52.50;;;;;;5010363;28;20099;-48
2023/06/10 02:55:27;;;;;;;7.85;7.25;;;20.50;52.50;;;;;;5009246;28;20037;-46
2023/06/10 02:58:00;;;;;;;8.27;7.47;;;20.50;52.70;;;;;;5013301;28;20049;-49
2023/06/10 03:00:32;;;;;;;7.53;6.82;;;20.50;52.80;;;;;;5013059;28;20576;-48
2023/06/10 03:03:03;;;;;;;7.68;7.07;;;20.40;52.80;;;;;;5008473;28;20050;-48
2023/06/10 03:05:37;;;;;;;8.00;7.40;;;20.40;52.80;;;;;;5013131;28;20091;-50
2023/06/10 03:08:06;;;;;;;8.30;7.60;;;20.40;52.70;;;;;;5013146;28;20705;-47
2023/06/10 03:10:38;;;;;;;8.25;7.45;;;20.30;52.70;;;;;;5013345;28;20391;-49
2023/06/10 03:13:16;;;;;;;8.38;7.68;;;20.30;52.70;;;;;;5004601;28;20072;-50
2023/06/10 03:15:46;;;;;;;8.50;7.82;;;20.30;53.30;;;;;;5013247;28;20072;-46
2023/06/10 03:18:17;;;;;;;8.30;7.68;;;20.30;53.10;;;;;;5030985;28;20096;-46
2023/06/10 03:20:47;;;;;;;7.97;7.28;;;20.20;52.70;;;;;;5010630;28;20033;-48
2023/06/10 03:23:29;;;;;;;8.60;7.78;;;20.20;52.70;;;;;;5004508;28;20045;-46
2023/06/10 03:25:56;;;;;;;7.93;7.18;;;20.20;53.00;;;;;;5022007;28;20502;-47
2023/06/10 03:28:26;;;;;;;8.18;7.50;;;20.10;52.80;;;;;;5012625;28;20054;-47
2023/06/10 03:31:00;;;;;;;8.88;8.07;;;20.10;53.20;;;;;;5030613;28;20137;-47
2023/06/10 03:33:38;;;;;;;7.78;7.13;;;20.10;53.40;;;;;;5012698;28;20462;-48
2023/06/10 03:36:05;;;;;;;8.88;8.07;;;20.10;53.20;;;;;;5005150;28;20410;-48
2023/06/10 03:38:33;;;;;;;7.38;6.82;;;20.00;53.20;;;;;;5012598;28;20046;-50
2023/06/10 03:41:06;;;;;;;8.27;7.68;;;20.00;53.20;;;;;;5012913;28;20399;-47
2023/06/10 03:43:40;;;;;;;8.05;7.35;;;20.00;53.40;;;;;;5006041;28;20064;-48
2023/06/10 03:46:17;;;;;;;7.80;7.10;;;20.00;53.90;;;;;;5029270;28;20536;-47
2023/06/10 03:48:44;;;;;;;7.65;7.05;;;19.90;53.20;;;;;;5012558;28;20049;-49
2023/06/10 03:51:13;;;;;;;8.38;7.68;;;19.90;53.30;;;;;;5012263;28;20045;-46
2023/06/10 03:53:43;;;;;;;7.88;7.28;;;19.90;53.50;;;;;;5008903;28;20141;-46
2023/06/10 03:56:23;;;;;;;8.20;7.50;;;19.90;53.60;;;;;;5033966;28;20069;-48
2023/06/10 03:58:52;;;;;;;7.75;7.07;;;19.90;53.70;;;;;;5016303;28;20072;-46
2023/06/10 04:01:21;;;;;;;7.75;7.18;;;19.80;53.70;;;;;;5014941;28;20112;-47
2023/06/10 04:03:53;;;;;;;9.23;8.43;;;19.80;53.90;;;;;;5015968;28;20042;-46
2023/06/10 04:06:22;;;;;;;8.30;7.55;;;19.80;54.30;;;;;;5034446;28;20084;-47
2023/06/10 04:08:56;;;;;;;8.57;7.82;;;19.80;54.10;;;;;;5016445;28;20055;-47
2023/06/10 04:11:26;;;;;;;8.68;7.97;;;19.80;54.40;;;;;;5026225;28;20033;-48
2023/06/10 04:13:57;;;;;;;8.18;7.43;;;19.80;54.90;;;;;;5016329;28;20041;-48
2023/06/10 04:16:25;;;;;;;7.90;7.22;;;19.80;54.70;;;;;;5008791;28;20502;-47
2023/06/10 04:18:55;;;;;;;8.65;7.85;;;19.80;54.80;;;;;;5010864;28;20100;-47
2023/06/10 04:21:25;;;;;;;8.90;8.13;;;19.80;55.00;;;;;;5014795;28;20460;-45
2023/06/10 04:23:53;;;;;;;8.70;8.00;;;19.90;55.20;;;;;;5009945;28;20062;-47
2023/06/10 04:26:20;;;;;;;8.93;8.02;;;19.90;55.50;;;;;;5025613;28;20042;-47
2023/06/10 04:28:56;;;;;;;8.80;8.00;;;19.90;55.60;;;;;;5016008;28;20460;-46
2023/06/10 04:31:23;;;;;;;7.93;7.30;;;19.90;55.60;;;;;;5033824;28;20098;-46
2023/06/10 04:33:56;;;;;;;8.77;7.97;;;20.00;55.80;;;;;;5028004;28;20053;-46
2023/06/10 04:36:25;;;;;;;8.75;7.97;;;19.90;56.30;;;;;;5026057;28;20379;-46
2023/06/10 04:38:52;;;;;;;9.63;8.00;;;20.00;56.20;;;;;;5015259;28;20639;-47
2023/06/10 04:41:22;;;;;;;9.65;8.63;;;20.00;56.40;;;;;;5016046;28;20045;-48
2023/06/10 04:43:49;;;;;;;9.15;8.35;;;20.00;56.60;;;;;;5012644;28;20079;-47
2023/06/10 04:46:16;;;;;;;8.65;7.85;;;20.10;56.90;;;;;;5033792;28;20045;-48
2023/06/10 04:48:46;;;;;;;9.48;8.60;;;20.10;57.00;;;;;;5033402;28;20156;-47
2023/06/10 04:51:18;;;;;;;8.18;7.47;;;20.20;57.20;;;;;;5024995;28;20063;-46
2023/06/10 04:53:45;;;;;;;9.95;8.57;;;20.20;57.70;;;;;;5030553;28;20562;-47
2023/06/10 04:56:11;;;;;;;9.00;8.30;;;20.30;57.50;;;;;;5031970;28;20044;-48
2023/06/10 04:58:43;;;;;;;9.43;8.52;;;20.30;57.70;;;;;;5033256;28;20615;-46
2023/06/10 05:01:12;;;;;;;8.93;8.10;;;20.40;58.20;;;;;;5033633;28;20053;-48
2023/06/10 05:03:40;;;;;;;8.52;7.72;;;20.40;57.90;;;;;;5029868;28;20045;-50
2023/06/10 05:06:09;;;;;;;9.75;8.85;;;20.50;58.10;;;;;;5031010;28;20103;-48
2023/06/10 05:08:36;;;;;;;9.48;8.65;;;20.50;58.30;;;;;;5032905;28;20120;-46
2023/06/10 05:11:03;;;;;;;9.93;9.10;;;20.60;58.50;;;;;;5031664;28;20052;-48
2023/06/10 05:13:32;;;;;;;10.00;9.10;;;20.60;58.50;;;;;;5027856;28;20050;-46
2023/06/10 05:16:01;;;;;;;9.38;8.57;;;20.70;58.80;;;;;;5033252;28;20049;-47
2023/06/10 05:18:33;;;;;;;10.05;9.15;;;20.70;58.80;;;;;;5025700;28;20727;-47
2023/06/10 05:20:59;;;;;;;9.77;8.88;;;20.80;59.20;;;;;;5031028;28;20046;-49
2023/06/10 05:23:26;;;;;;;9.63;8.82;;;20.90;59.00;;;;;;5024797;28;20069;-47
2023/06/10 05:25:55;;;;;;;10.10;9.10;;;21.00;59.20;;;;;;5025791;28;20075;-48
2023/06/10 05:28:21;;;;;;;9.65;8.85;;;21.00;59.00;;;;;;5032612;28;20140;-47
2023/06/10 05:30:50;;;;;;;9.80;8.98;;;21.10;59.30;;;;;;5033025;28;20457;-47
2023/06/10 05:33:25;;;;;;;10.38;9.57;;;21.20;59.20;;;;;;5030226;28;20049;-48
2023/06/10 05:35:52;;;;;;;9.85;8.95;;;21.30;58.90;;;;;;5028517;28;20132;-46
2023/06/10 05:38:21;;;;;;;10.18;9.18;;;21.30;58.80;;;;;;5032733;28;20056;-46
2023/06/10 05:40:50;;;;;;;9.27;8.48;;;21.40;58.50;;;;;;5032397;28;20125;-49
2023/06/10 05:43:16;;;;;;;9.27;8.45;;;21.50;58.30;;;;;;5030318;28;20059;-51
2023/06/10 05:45:43;;;;;;;10.50;9.60;;;21.60;58.20;;;;;;5030070;28;20080;-50
2023/06/10 05:48:10;;;;;;;8.75;7.93;;;21.70;58.00;;;;;;5032146;28;20061;-51
2023/06/10 05:50:38;;;;;;;9.60;8.65;;;21.70;57.80;;;;;;5032365;28;20109;-46
2023/06/10 05:53:14;;;;;;;9.07;8.27;;;21.80;57.40;;;;;;5028563;28;20095;-46
2023/06/10 05:55:48;;;;;;;9.73;8.75;;;22.00;57.30;;;;;;5029573;28;20052;-50
2023/06/10 05:58:23;;;;;;;9.40;8.60;;;22.00;57.10;;;;;;5032337;28;20048;-49
2023/06/10 06:00:51;;;;;;;10.13;9.23;;;22.10;57.20;;;;;;5032089;28;20050;-45
2023/06/10 06:03:20;;;;;;;8.77;8.07;;;22.20;57.10;;;;;;5030725;28;20120;-50
2023/06/10 06:05:49;;;;;;;10.10;9.18;;;22.30;57.00;;;;;;5027545;28;20041;-49
2023/06/10 06:08:18;;;;;;;8.50;7.80;;;22.40;56.60;;;;;;5032038;28;20037;-48
2023/06/10 06:10:45;;;;;;;9.15;8.30;;;22.40;55.90;;;;;;5032098;28;20037;-48
2023/06/10 06:13:18;;;;;;;9.18;8.20;;;22.50;55.80;;;;;;5026398;28;20065;-49
2023/06/10 06:15:45;;;;;;;8.70;7.87;;;22.60;55.80;;;;;;5031173;28;20506;-47
2023/06/10 06:18:14;;;;;;;9.32;8.52;;;22.70;55.50;;;;;;5031538;28;20071;-47
2023/06/10 06:20:40;;;;;;;9.98;9.02;;;22.80;55.10;;;;;;5029712;28;20039;-47
2023/06/10 06:23:14;;;;;;;9.25;8.35;;;22.80;55.10;;;;;;5025084;28;20576;-49
2023/06/10 06:25:40;;;;;;;8.85;7.95;;;22.90;55.10;;;;;;5019649;28;20585;-49
2023/06/10 06:28:12;;;;;;;10.90;8.27;;;23.00;55.00;;;;;;5031509;28;20046;-51
2023/06/10 06:30:41;;;;;;;9.40;8.30;;;23.10;55.20;;;;;;5028453;28;20043;-49
2023/06/10 06:33:08;;;;;;;9.02;8.13;;;23.10;54.70;;;;;;5028659;28;20494;-49
2023/06/10 06:35:38;;;;;;;8.75;7.95;;;23.20;54.60;;;;;;5031416;28;20406;-50
2023/06/10 06:38:09;;;;;;;9.07;8.18;;;23.30;54.50;;;;;;5026727;28;20059;-49
2023/06/10 06:40:37;;;;;;;9.30;8.38;;;23.30;54.00;;;;;;5013299;28;20048;-47
2023/06/10 06:43:05;;;;;;;9.27;8.38;;;23.40;53.80;;;;;;5031574;28;20100;-50
2023/06/10 06:45:57;;;;;;;8.95;8.05;;;23.40;53.70;;;;;;5022244;28;20060;-50
2023/06/10 06:48:24;;;;;;;9.98;8.00;;;23.50;53.40;;;;;;5025584;28;20042;-50
2023/06/10 06:50:56;;;;;;;8.35;7.55;;;23.60;53.40;;;;;;5013453;28;20104;-47
2023/06/10 06:53:22;;;;;;;8.97;8.07;;;23.70;53.90;;;;;;5029303;28;20125;-48
2023/06/10 06:56:01;;;;;;;8.68;7.88;;;23.70;53.60;;;;;;5006353;28;20046;-49
2023/06/10 06:58:32;;;;;;;8.65;7.85;;;23.80;53.80;;;;;;5030673;28;20072;-49
2023/06/10 07:01:05;;;;;;;9.82;8.93;;;23.80;53.00;;;;;;5030784;28;20056;-51
2023/06/10 07:03:34;;;;;;;8.40;7.70;;;23.90;53.70;;;;;;5024953;28;20059;-48
2023/06/10 07:06:00;;;;;;;9.25;8.27;;;24.00;52.70;;;;;;5031318;28;20049;-49
2023/06/10 07:08:27;;;;;;;7.97;7.28;;;24.00;52.60;;;;;;5030792;28;20067;-50
2023/06/10 07:11:05;;;;;;;9.30;8.40;;;24.10;52.50;;;;;;5025577;28;20125;-50
2023/06/10 07:13:33;;;;;;;8.52;7.72;;;24.10;52.50;;;;;;5025541;28;20053;-49
2023/06/10 07:16:00;;;;;;;8.70;7.80;;;24.20;52.50;;;;;;5013210;28;20417;-50
2023/06/10 07:18:29;;;;;;;9.20;8.40;;;24.30;52.40;;;;;;5030681;28;20057;-50
2023/06/10 07:20:55;;;;;;;9.23;7.78;;;24.30;52.20;;;;;;5025080;28;20079;-50
2023/06/10 07:23:28;;;;;;;8.30;7.45;;;24.40;52.10;;;;;;5028991;28;20053;-46
2023/06/10 07:25:57;;;;;;;8.50;7.53;;;24.40;51.80;;;;;;5020863;28;20045;-48
2023/06/10 07:28:25;;;;;;;8.35;7.57;;;24.50;51.10;;;;;;5029144;28;20052;-51
2023/06/10 07:30:52;;;;;;;8.00;7.30;;;24.50;51.30;;;;;;5025704;28;20116;-51
2023/06/10 07:33:23;;;;;;;8.85;8.10;;;24.60;51.00;;;;;;5030693;28;20548;-48
2023/06/10 07:35:52;;;;;;;7.25;6.70;;;24.70;51.20;;;;;;5030263;28;20405;-50
2023/06/10 07:38:19;;;;;;;8.05;7.18;;;24.70;50.70;;;;;;5025018;28;20142;-47
2023/06/10 07:40:50;;;;;;;8.83;6.13;;;24.80;50.00;;;;;;5030372;28;20092;-47
2023/06/10 07:43:17;;;;;;;6.88;6.30;;;24.90;50.00;;;;;;5030588;28;20042;-47
2023/06/10 07:45:44;;;;;;;8.18;7.47;;;24.90;49.00;;;;;;5030455;28;20045;-47
2023/06/10 07:48:14;;;;;;;7.47;6.15;;;25.00;49.00;;;;;;5025710;28;20091;-48
2023/06/10 07:50:42;;;;;;;10.38;6.53;;;25.00;48.20;;;;;;5030480;28;20038;-51
2023/06/10 07:53:09;;;;;;;7.10;6.40;;;25.10;48.00;;;;;;5030734;28;20064;-47
2023/06/10 07:55:35;;;;;;;7.75;7.05;;;25.10;48.20;;;;;;5021951;28;20040;-48
2023/06/10 07:58:04;;;;;;;7.15;6.47;;;25.10;48.00;;;;;;5030858;28;20041;-47
2023/06/10 08:00:38;;;;;;;7.82;6.25;;;25.20;48.30;;;;;;5012505;28;20042;-51
2023/06/10 08:03:07;;;;;;;8.30;7.60;;;25.30;48.20;;;;;;5027864;28;20579;-48
2023/06/10 08:05:37;;;;;;;7.22;6.45;;;25.30;47.50;;;;;;5022525;28;20502;-47
2023/06/10 08:08:04;;;;;;;7.22;6.53;;;25.40;47.60;;;;;;5030677;28;20124;-51
2023/06/10 08:10:33;;;;;;;7.32;6.63;;;25.40;47.20;;;;;;5027276;28;20070;-47
2023/06/10 08:13:04;;;;;;;6.82;6.18;;;25.50;47.60;;;;;;5025077;28;20406;-46
2023/06/10 08:15:34;;;;;;;7.50;6.78;;;25.60;47.60;;;;;;5030061;28;20061;-48
2023/06/10 08:18:03;;;;;;;6.70;6.10;;;25.60;47.30;;;;;;5028184;28;20057;-47
2023/06/10 08:20:32;;;;;;;6.93;6.32;;;25.60;46.90;;;;;;5026299;28;20053;-51
2023/06/10 08:23:00;;;;;;;7.60;7.00;;;25.70;46.70;;;;;;5029630;28;20579;-50
2023/06/10 08:25:29;;;;;;;7.10;6.40;;;25.80;46.80;;;;;;5020214;28;20053;-46
2023/06/10 08:27:57;;;;;;;7.43;6.43;;;25.80;47.00;;;;;;5029719;28;20053;-47
2023/06/10 08:30:26;;;;;;;6.80;6.20;;;25.90;46.70;;;;;;5029579;28;20053;-47
2023/06/10 08:32:53;;;;;;;8.13;6.82;;;26.00;46.80;;;;;;5030508;28;20107;-48
2023/06/10 08:35:20;;;;;;;6.93;6.40;;;26.00;46.30;;;;;;5025718;28;20631;-46
2023/06/10 08:37:47;;;;;;;6.75;6.10;;;26.10;47.10;;;;;;5029816;28;20545;-50
2023/06/10 08:40:18;;;;;;;7.05;6.40;;;26.10;46.70;;;;;;5032507;28;20113;-47
2023/06/10 08:43:18;;;;;;;14.02;6.70;;;26.20;46.60;;;;;;5030255;28;20061;-51
2023/06/10 08:45:48;;;;;;;7.50;6.80;;;26.30;45.60;;;;;;5026477;28;20107;-47
2023/06/10 08:48:20;;;;;;;7.07;6.47;;;26.30;45.60;;;;;;5033599;28;20056;-48
2023/06/10 08:50:56;;;;;;;7.95;7.25;;;26.40;45.90;;;;;;5013736;28;20042;-48
2023/06/10 08:53:34;;;;;;;7.05;6.25;;;26.40;45.70;;;;;;5013179;28;20728;-47
2023/06/10 08:56:04;;;;;;;7.03;6.43;;;26.50;46.00;;;;;;5032369;28;20042;-51
2023/06/10 08:58:35;;;;;;;8.48;7.20;;;26.50;45.90;;;;;;5033435;28;20045;-47
2023/06/10 09:01:02;;;;;;;7.40;6.60;;;26.60;45.70;;;;;;5033631;28;20065;-50
2023/06/10 09:03:35;;;;;;;;;;;26.60;45.10;;;;;;5029268;28;20045;-51
2023/06/10 09:06:08;;;;;;;7.43;6.22;;;26.70;45.50;;;;;;5033686;28;19921;-47
2023/06/10 09:08:42;;;;;;;7.93;7.18;;;26.70;45.20;;;;;;5033254;28;20100;-51
2023/06/10 09:11:08;;;;;;;7.00;6.35;;;26.80;44.40;;;;;;5032595;28;20116;-50
2023/06/10 09:13:35;;;;;;;7.15;6.53;;;26.90;44.60;;;;;;5025770;28;20052;-48
2023/06/10 09:16:04;;;;;;;9.57;6.57;;;26.90;44.50;;;;;;5033462;28;20080;-48
2023/06/10 09:18:34;;;;;;;6.70;5.97;;;26.90;44.00;;;;;;5032937;28;20148;-50
2023/06/10 09:21:03;;;;;;;6.88;6.32;;;27.00;44.20;;;;;;5028395;28;20045;-48
2023/06/10 09:23:30;;;;;;;6.43;6.00;;;27.10;44.00;;;;;;5029325;28;20152;-47
2023/06/10 09:25:58;;;;;;;7.97;7.25;;;27.10;43.60;;;;;;5024630;28;20417;-49
2023/06/10 09:28:25;;;;;;;9.10;6.63;;;27.20;43.60;;;;;;5032417;28;20446;-46
2023/06/10 09:31:09;;;;;;;7.55;6.80;;;27.20;43.40;;;;;;5032972;28;20045;-48
2023/06/10 09:33:39;;;;;;;7.65;7.05;;;27.30;42.70;;;;;;5032626;28;20064;-47
2023/06/10 09:36:20;;;;;;;6.88;6.13;;;27.40;42.90;;;;;;5027788;28;20055;-49
2023/06/10 09:38:52;;;;;;;7.40;6.68;;;27.40;42.90;;;;;;5016281;28;20422;-47
2023/06/10 09:41:21;;;;;;;7.32;6.60;;;27.50;42.80;;;;;;5033035;28;20041;-47
2023/06/10 09:43:52;;;;;;;9.40;6.53;;;27.50;42.90;;;;;;5030136;28;20557;-50
2023/06/10 09:46:20;;;;;;;7.53;6.93;;;27.60;42.90;;;;;;5030257;28;20133;-51
2023/06/10 09:48:48;;;;;;;7.18;6.57;;;27.60;42.80;;;;;;5032451;28;20038;-50
2023/06/10 09:51:17;;;;;;;7.70;7.00;;;27.70;42.70;;;;;;5032257;28;20045;-50
2023/06/10 09:53:51;;;;;;;6.93;6.30;;;27.80;42.20;;;;;;5025100;28;20049;-49
2023/06/10 09:56:20;;;;;;;7.65;6.95;;;27.90;42.00;;;;;;5040820;28;20045;-50
2023/06/10 09:58:53;;;;;;;7.38;6.78;;;27.90;41.50;;;;;;5032105;28;20103;-48
2023/06/10 10:01:24;;;;;;;7.07;6.33;;;28.00;42.10;;;;;;5031900;28;20119;-47
2023/06/10 10:03:53;;;;;;;9.75;6.93;;;28.00;42.20;;;;;;5027341;28;20083;-47
2023/06/10 10:06:23;;;;;;;7.32;6.68;;;28.10;41.40;;;;;;5032508;28;20055;-51
2023/06/10 10:08:54;;;;;;;7.65;6.90;;;28.20;41.50;;;;;;5032074;28;20128;-51
2023/06/10 10:11:25;;;;;;;7.63;6.97;;;28.20;42.00;;;;;;5029052;28;20471;-51
2023/06/10 10:13:55;;;;;;;8.25;7.63;;;28.30;42.00;;;;;;5036800;28;20072;-51
2023/06/10 10:16:42;;;;;;;8.18;7.43;;;28.40;41.90;;;;;;5031843;28;20120;-50
2023/06/10 10:19:36;;;;;;;7.55;6.60;;;28.50;41.60;;;;;;5010732;28;20056;-48
2023/06/10 10:22:10;;;;;;;8.02;7.03;;;28.60;41.00;;;;;;4999396;28;20068;-47
2023/06/10 10:24:46;;;;;;;7.70;6.93;;;28.60;41.20;;;;;;5023158;28;20033;-51
2023/06/10 10:27:28;;;;;;;7.15;6.57;;;28.70;40.90;;;;;;5027570;28;20179;-48
2023/06/10 10:30:09;;;;;;;8.02;6.90;;;28.80;41.00;;;;;;5028177;28;20053;-48
2023/06/10 10:32:45;;;;;;;7.82;7.20;;;28.90;41.30;;;;;;5030903;28;20095;-51
2023/06/10 10:35:24;;;;;;;8.07;7.30;;;29.00;41.60;;;;;;5031547;28;20084;-47
2023/06/10 10:37:54;;;;;;;8.63;6.82;;;29.10;41.20;;;;;;5030657;28;20470;-51
2023/06/10 10:40:29;;;;;;;7.60;6.90;;;29.10;41.10;;;;;;5030742;28;20088;-46
2023/06/10 10:42:57;;;;;;;7.78;7.07;;;29.20;41.60;;;;;;5031498;28;20472;-51
2023/06/10 10:45:23;;;;;;;8.57;6.97;;;29.20;41.60;;;;;;5030907;28;20041;-50
2023/06/10 10:47:57;;;;;;;8.43;7.32;;;29.30;40.70;;;;;;5029236;28;20049;-50
2023/06/10 10:50:24;;;;;;;7.97;7.18;;;29.30;40.80;;;;;;5030948;28;20132;-50
2023/06/10 10:52:54;;;;;;;7.25;6.43;;;29.40;39.90;;;;;;5031192;28;20041;-47
2023/06/10 10:55:24;;;;;;;7.82;7.03;;;29.50;40.80;;;;;;5026648;28;20042;-46
2023/06/10 10:58:02;;;;;;;7.25;6.50;;;29.50;40.20;;;;;;5038204;28;20049;-47
2023/06/10 11:00:33;;;;;;;7.10;6.50;;;29.60;40.40;;;;;;5030669;28;20128;-46
2023/06/10 11:03:08;;;;;;;7.47;6.80;;;29.60;40.20;;;;;;5022961;28;20053;-46
2023/06/10 11:05:50;;;;;;;8.05;7.13;;;29.70;40.10;;;;;;5030975;28;20060;-48
2023/06/10 11:08:29;;;;;;;7.47;6.88;;;29.80;39.80;;;;;;5031161;28;20053;-48
2023/06/10 11:10:58;;;;;;;7.70;6.78;;;29.80;39.80;;;;;;5023598;28;20092;-47
2023/06/10 11:13:26;;;;;;;7.03;6.43;;;29.80;39.00;;;;;;5025826;28;20065;-47
2023/06/10 11:15:58;;;;;;;7.13;6.45;;;29.90;38.40;;;;;;5030765;28;20046;-47
2023/06/10 11:18:25;;;;;;;7.57;6.88;;;30.00;39.20;;;;;;5030959;28;20410;-47
2023/06/10 11:21:02;;;;;;;6.63;6.13;;;30.00;39.10;;;;;;5027175;28;20128;-48
2023/06/10 11:23:32;;;;;;;9.65;7.55;;;30.10;39.10;;;;;;5028584;28;20514;-48
2023/06/10 11:26:20;;;;;;;8.27;7.47;;;30.20;38.70;;;;;;5026653;28;20055;-50
2023/06/10 11:28:47;;;;;;;8.45;7.55;;;30.30;38.50;;;;;;5022659;28;20444;-49
2023/06/10 11:31:30;;;;;;;9.80;6.93;;;30.40;37.90;;;;;;5025820;28;20390;-48
2023/06/10 11:34:02;;;;;;;7.00;6.20;;;30.40;37.90;;;;;;5023825;28;20041;-47
2023/06/10 11:36:31;;;;;;;6.75;6.13;;;30.50;38.50;;;;;;5031010;28;20045;-47
2023/06/10 11:39:01;;;;;;;7.53;6.68;;;30.60;38.00;;;;;;5026720;28;20128;-46
2023/06/10 11:41:31;;;;;;;12.45;9.13;;;30.60;37.50;;;;;;5027894;28;20532;-47
2023/06/10 11:44:11;;;;;;;7.75;6.95;;;30.70;36.70;;;;;;5030349;28;20043;-46
2023/06/10 11:46:38;;;;;;;8.60;6.47;;;30.80;36.00;;;;;;5029235;28;20756;-51
2023/06/10 11:49:05;;;;;;;7.30;6.60;;;30.90;36.70;;;;;;5027452;28;20076;-48
2023/06/10 11:51:41;;;;;;;6.75;6.20;;;31.00;36.30;;;;;;5029217;28;20057;-47
2023/06/10 11:54:13;;;;;;;7.35;6.32;;;31.00;36.00;;;;;;5024404;28;20065;-50
2023/06/10 11:56:45;;;;;;;6.57;6.00;;;31.20;36.10;;;;;;5028915;28;20045;-47
2023/06/10 11:59:14;;;;;;;7.38;5.85;;;31.20;36.00;;;;;;5030323;28;20053;-49
2023/06/10 12:01:47;;;;;;;6.50;5.95;;;31.30;35.70;;;;;;5030220;28;20071;-50
2023/06/10 12:04:18;;;;;;;7.13;6.38;;;31.30;34.90;;;;;;5022956;28;20522;-45
2023/06/10 12:06:49;;;;;;;6.20;5.65;;;31.50;35.20;;;;;;5030827;28;20041;-48
2023/06/10 12:09:26;;;;;;;6.75;6.15;;;31.50;35.00;;;;;;5012248;28;20060;-48
2023/06/10 12:12:02;;;;;;;5.65;5.15;;;31.60;35.00;;;;;;5025735;28;20068;-49
2023/06/10 12:14:56;;;;;;;6.38;5.80;;;31.70;34.80;;;;;;5033345;28;20124;-47
2023/06/10 12:17:34;;;;;;;6.55;5.95;;;31.90;34.20;;;;;;5034192;28;20053;-47
2023/06/10 12:20:24;;;;;;;7.68;6.97;;;32.00;34.60;;;;;;5032401;28;20056;-47
2023/06/10 12:22:53;;;;;;;6.47;5.88;;;32.10;33.30;;;;;;5030725;28;20050;-50
2023/06/10 12:25:28;;;;;;;6.63;5.93;;;32.20;33.80;;;;;;5024057;28;20104;-47
2023/06/10 12:27:57;;;;;;;6.00;5.50;;;32.40;33.40;;;;;;5029879;28;20057;-48
2023/06/10 12:30:28;;;;;;;8.50;6.18;;;32.50;33.30;;;;;;5033701;28;20416;-49
2023/06/10 12:32:57;;;;;;;7.30;6.60;;;32.60;33.00;;;;;;5034109;28;20065;-47
2023/06/10 12:35:27;;;;;;;7.40;6.00;;;32.80;33.00;;;;;;5028273;28;20120;-47
2023/06/10 12:38:06;;;;;;;6.25;5.75;;;32.90;32.80;;;;;;5033338;28;20125;-49
2023/06/10 12:40:41;;;;;;;6.88;6.18;;;33.00;32.30;;;;;;5033512;28;20501;-50
2023/06/10 12:43:08;;;;;;;6.25;5.72;;;33.10;32.30;;;;;;5031274;28;20471;-47
2023/06/10 12:45:36;;;;;;;7.75;6.60;;;33.20;32.60;;;;;;5031658;28;20077;-48
2023/06/10 12:48:10;;;;;;;6.00;5.50;;;33.20;32.30;;;;;;5033947;28;20049;-51
2023/06/10 12:50:41;;;;;;;6.45;5.93;;;33.30;32.10;;;;;;5033415;28;20051;-51
2023/06/10 12:53:11;;;;;;;6.50;6.00;;;33.40;31.80;;;;;;5035763;28;20116;-47
2023/06/10 12:55:39;;;;;;;5.80;5.30;;;33.50;32.10;;;;;;5027181;28;20788;-50
2023/06/10 12:58:13;;;;;;;6.07;5.50;;;33.60;31.70;;;;;;5033304;28;20368;-48
2023/06/10 13:00:42;;;;;;;6.55;5.80;;;33.80;31.90;;;;;;5033064;28;20103;-49
2023/06/10 13:03:12;;;;;;;6.07;5.68;;;34.00;31.90;;;;;;5029021;28;20049;-51
2023/06/10 13:05:39;;;;;;;5.90;5.40;;;34.30;31.90;;;;;;5031522;28;20092;-48